NCAR-RAP Real-Time Weather Data

Output produced by METARs form (30 September 2014  17:51 UTC)
found at http://weather.rap.ucar.edu/surface/
 
Conditions at: KALB observed 30 September 2014  16:51 UTC
Temperature: 21.7°C (71°F)
Dewpoint: 13.9°C (57°F) [RH = 61%]
Pressure (altimeter): 29.96 inches Hg (1014.6 mb)
[Sea-level pressure: 1014.4 mb]
Winds: from the SSE (160 degrees) at 8 MPH (7 knots; 3.6 m/s)
Visibility: 10 or more miles (16+ km)
Ceiling: 3000 feet AGL
Clouds: broken clouds at 3000 feet AGL
broken clouds at 25000 feet AGL
Present Weather: no significant weather observed at this time
KALB 301651Z 16007KT 10SM BKN030 BKN250 22/14 A2996 RMK AO2 SLP144 BKN030 V SCT T02170139

Conditions at: KALB observed 30 September 2014  16:40 UTC
Temperature: 21.1°C (70°F)
Dewpoint: 13.9°C (57°F) [RH = 63%]
Pressure (altimeter): 29.96 inches Hg (1014.6 mb)
Winds: from the S (170 degrees) at 6 MPH (5 knots; 2.6 m/s)
Visibility: 10 or more miles (16+ km)
Ceiling: 2900 feet AGL
Clouds: broken clouds at 2900 feet AGL
broken clouds at 26000 feet AGL
Present Weather: no significant weather observed at this time
KALB 301640Z 17005KT 10SM BKN029 BKN260 21/14 A2996 RMK AO2 T02110139

Conditions at: KALB observed 30 September 2014  16:27 UTC
Temperature: 21.1°C (70°F)
Dewpoint: 13.9°C (57°F) [RH = 63%]
Pressure (altimeter): 29.96 inches Hg (1014.6 mb)
Winds: from the S (190 degrees) at 6 MPH (5 knots; 2.6 m/s)
Visibility: 10 or more miles (16+ km)
Ceiling: 26000 feet AGL
Clouds: scattered clouds at 2700 feet AGL
broken clouds at 26000 feet AGL
Present Weather: no significant weather observed at this time
KALB 301627Z 19005KT 10SM SCT027 BKN260 21/14 A2996 RMK AO2 SCT V BKN T02110139

Conditions at: KALB observed 30 September 2014  15:51 UTC
Temperature: 20.6°C (69°F)
Dewpoint: 13.9°C (57°F) [RH = 65%]
Pressure (altimeter): 29.96 inches Hg (1014.6 mb)
[Sea-level pressure: 1014.6 mb]
Winds: variable direction winds at 7 MPH (6 knots; 3.1 m/s)
Visibility: 10 or more miles (16+ km)
Ceiling: 2400 feet AGL
Clouds: broken clouds at 2400 feet AGL
broken clouds at 26000 feet AGL
Present Weather: no significant weather observed at this time
KALB 301551Z VRB06KT 10SM BKN024 BKN260 21/14 A2996 RMK AO2 SLP146 BKN024 V SCT T02060139

Conditions at: KALB observed 30 September 2014  14:51 UTC
Temperature: 19.4°C (67°F)
Dewpoint: 13.9°C (57°F) [RH = 71%]
Pressure (altimeter): 29.98 inches Hg (1015.3 mb)
[Sea-level pressure: 1015.1 mb]
Winds: from the ESE (110 degrees) at 5 MPH (4 knots; 2.1 m/s)
Visibility: 10 or more miles (16+ km)
Ceiling: 2300 feet AGL
Clouds: few clouds at 1400 feet AGL
overcast cloud deck at 2300 feet AGL
Present Weather: no significant weather observed at this time
KALB 301451Z 11004KT 10SM FEW014 OVC023 19/14 A2998 RMK AO2 SLP151 T01940139 50000

Conditions at: KALB observed 30 September 2014  13:51 UTC
Temperature: 17.8°C (64°F)
Dewpoint: 14.4°C (58°F) [RH = 80%]
Pressure (altimeter): 29.99 inches Hg (1015.7 mb)
[Sea-level pressure: 1015.5 mb]
Winds: calm
Visibility: 10 or more miles (16+ km)
Ceiling: 2200 feet AGL
Clouds: few clouds at 1000 feet AGL
overcast cloud deck at 2200 feet AGL
Present Weather: no significant weather observed at this time
KALB 301351Z 00000KT 10SM FEW010 OVC022 18/14 A2999 RMK AO2 SLP155 T01780144

Conditions at: KALB observed 30 September 2014  12:51 UTC
Temperature: 16.1°C (61°F)
Dewpoint: 14.4°C (58°F) [RH = 90%]
Pressure (altimeter): 29.98 inches Hg (1015.3 mb)
[Sea-level pressure: 1015.4 mb]
Winds: from the N (350 degrees) at 3 MPH (3 knots; 1.6 m/s)
Visibility: 8 miles (13 km)
Ceiling: 2100 feet AGL
Clouds: broken clouds at 2100 feet AGL
overcast cloud deck at 6000 feet AGL
Present Weather: no significant weather observed at this time
KALB 301251Z 35003KT 8SM BKN021 OVC060 16/14 A2998 RMK AO2 SLP154 T01610144

Conditions at: KALB observed 30 September 2014  11:51 UTC
Temperature: 15.0°C (59°F)
Dewpoint: 13.3°C (56°F) [RH = 90%]
Pressure (altimeter): 29.98 inches Hg (1015.3 mb)
[Sea-level pressure: 1015.2 mb]
Winds: calm
Visibility: 7 miles (11 km)
Ceiling: 1900 feet AGL
Clouds: overcast cloud deck at 1900 feet AGL
Present Weather: no significant weather observed at this time
KALB 301151Z 00000KT 7SM OVC019 15/13 A2998 RMK AO2 SLP152 VIS LWR NW-N T01500133 10150 20128 51011

Conditions at: KALB observed 30 September 2014  10:51 UTC
Temperature: 13.9°C (57°F)
Dewpoint: 12.8°C (55°F) [RH = 93%]
Pressure (altimeter): 29.97 inches Hg (1015.0 mb)
[Sea-level pressure: 1014.7 mb]
Winds: calm
Visibility: 6 miles (10 km)
Ceiling: 1900 feet AGL
Clouds: few clouds at 200 feet AGL
overcast cloud deck at 1900 feet AGL
Present Weather: BCFG BR  (patches of fog, mist)
KALB 301051Z 00000KT 6SM BCFG BR FEW002 OVC019 14/13 A2997 RMK AO2 SLP147 BCFG NE-E T01390128

Conditions at: KALB observed 30 September 2014  10:22 UTC
Temperature: 13.3°C (56°F)
Dewpoint: 12.2°C (54°F) [RH = 93%]
Pressure (altimeter): 29.96 inches Hg (1014.6 mb)
Winds: calm
Visibility: 5 miles (8 km)
Ceiling: 2100 feet AGL
Clouds: few clouds at 200 feet AGL
broken clouds at 2100 feet AGL
Present Weather: BCFG BR  (patches of fog, mist)
KALB 301022Z 00000KT 5SM BCFG BR FEW002 BKN021 13/12 A2996 RMK AO2 BCFG NW-N T01330122

Conditions at: KALB observed 30 September 2014  09:51 UTC
Temperature: 12.8°C (55°F)
Dewpoint: 12.2°C (54°F) [RH = 96%]
Pressure (altimeter): 29.96 inches Hg (1014.6 mb)
[Sea-level pressure: 1014.4 mb]
Winds: from the N (350 degrees) at 3 MPH (3 knots; 1.6 m/s)
Visibility: 5 miles (8 km)
Ceiling: at least 12,000 feet AGL
Clouds: scattered clouds at 200 feet AGL
scattered clouds at 2500 feet AGL
Present Weather: BCFG BR  (patches of fog, mist)
KALB 300951Z 35003KT 5SM BCFG BR SCT002 SCT025 13/12 A2996 RMK AO2 SLP144 BCFG NW-N MIFG SW-W T01280122

Conditions at: KALB observed 30 September 2014  08:59 UTC
Temperature: 13.9°C (57°F)
Dewpoint: 12.8°C (55°F) [RH = 93%]
Pressure (altimeter): 29.95 inches Hg (1014.3 mb)
Winds: calm
Visibility: 5 miles (8 km)
Ceiling: at least 12,000 feet AGL
Clouds: few clouds at 200 feet AGL
scattered clouds at 2300 feet AGL
Present Weather: BCFG BR  (patches of fog, mist)
KALB 300859Z 00000KT 5SM BCFG BR FEW002 SCT023 14/13 A2995 RMK AO2 VIS NW 2 BCFG NW T01390128

Conditions at: KALB observed 30 September 2014  08:51 UTC
Temperature: 13.3°C (56°F)
Dewpoint: 12.8°C (55°F) [RH = 97%]
Pressure (altimeter): 29.95 inches Hg (1014.3 mb)
[Sea-level pressure: 1014.0 mb]
Winds: calm
Visibility: 6 miles (10 km)
Ceiling: 2300 feet AGL
Clouds: few clouds at 200 feet AGL
broken clouds at 2300 feet AGL
Present Weather: BCFG BR  (patches of fog, mist)
KALB 300851Z 00000KT 6SM BCFG BR FEW002 BKN023 13/13 A2995 RMK AO2 SLP140 VIS NW 2 BCFG NW T01330128 53002

Conditions at: KALB observed 30 September 2014  08:28 UTC
Temperature: 13.3°C (56°F)
Dewpoint: 12.8°C (55°F) [RH = 97%]
Pressure (altimeter): 29.94 inches Hg (1014.0 mb)
Winds: calm
Visibility: 3 miles (5 km)
Ceiling: 2300 feet AGL
Clouds: scattered clouds at 200 feet AGL
broken clouds at 2300 feet AGL
overcast cloud deck at 6000 feet AGL
Present Weather: BCFG BR  (patches of fog, mist)
KALB 300828Z 00000KT 3SM BCFG BR SCT002 BKN023 OVC060 13/13 A2994 RMK AO2 BCFG NW-NE T01330128

Conditions at: KALB observed 30 September 2014  08:11 UTC
Temperature: 13.3°C (56°F)
Dewpoint: 12.8°C (55°F) [RH = 97%]
Pressure (altimeter): 29.95 inches Hg (1014.3 mb)
Winds: from the ENE (70 degrees) at 3 MPH (3 knots; 1.6 m/s)
Visibility: 1.50 miles (2.41 km)
Ceiling: 200 feet AGL
Clouds: broken clouds at 200 feet AGL
broken clouds at 2300 feet AGL
overcast cloud deck at 6000 feet AGL
Present Weather: BCFG BR  (patches of fog, mist)
KALB 300811Z 07003KT 1 1/2SM R01/2200VP6000FT BCFG BR BKN002 BKN023 OVC060 13/13 A2995 RMK AO2 VIS 1V2 BCFG ALQDS T01330128

Conditions at: KALB observed 30 September 2014  07:56 UTC
Temperature: 13.3°C (56°F)
Dewpoint: 12.8°C (55°F) [RH = 97%]
Pressure (altimeter): 29.94 inches Hg (1014.0 mb)
Winds: calm
Visibility: 2.00 miles (3.22 km)
Ceiling: 200 feet AGL
Clouds: broken clouds at 200 feet AGL
broken clouds at 2300 feet AGL
broken clouds at 6000 feet AGL
broken clouds at 25000 feet AGL
Present Weather: BCFG BR  (patches of fog, mist)
KALB 300756Z 00000KT 2SM R01/4000VP6000FT BCFG BR BKN002 BKN023 BKN060 BKN250 13/13 A2994 RMK AO2 VIS 1 1/2V2 1/2 BCFG ALQDS T01330128

Conditions at: KALB observed 30 September 2014  07:51 UTC
Temperature: 13.3°C (56°F)
Dewpoint: 12.8°C (55°F) [RH = 97%]
Pressure (altimeter): 29.94 inches Hg (1014.0 mb)
[Sea-level pressure: 1013.9 mb]
Winds: calm
Visibility: 2.00 miles (3.22 km)
Ceiling: at least 12,000 feet AGL
Clouds: scattered clouds at 200 feet AGL
scattered clouds at 2300 feet AGL
scattered clouds at 25000 feet AGL
Present Weather: BCFG BR  (patches of fog, mist)
KALB 300751Z 00000KT 2SM BCFG BR SCT002 SCT023 SCT250 13/13 A2994 RMK AO2 SLP139 VIS 1 1/2V2 1/2 BCFG ALQDS T01330128

Conditions at: KALB observed 30 September 2014  07:06 UTC
Temperature: 13.3°C (56°F)
Dewpoint: 12.2°C (54°F) [RH = 93%]
Pressure (altimeter): 29.94 inches Hg (1014.0 mb)
Winds: calm
Visibility: 3 miles (5 km)
Ceiling: at least 12,000 feet AGL
Clouds: scattered clouds at 100 feet AGL
scattered clouds at 25000 feet AGL
Present Weather: BCFG BR  (patches of fog, mist)
KALB 300706Z 00000KT 3SM R01/1400V2600FT BCFG BR SCT001 SCT250 13/12 A2994 RMK AO2 VIS E-S 1 BCFG ALQDS T01330122

Conditions at: KALB observed 30 September 2014  06:59 UTC
Temperature: 13.3°C (56°F)
Dewpoint: 12.8°C (55°F) [RH = 97%]
Pressure (altimeter): 29.94 inches Hg (1014.0 mb)
Winds: calm
Visibility: 1.00 miles (1.61 km)
Ceiling: 100 feet AGL
Clouds: broken clouds at 100 feet AGL
broken clouds at 25000 feet AGL
Present Weather: BR  (mist)
KALB 300659Z 00000KT 1SM R01/1800V2600FT BR BKN001 BKN250 13/13 A2994 RMK AO2 VIS 1/2V1 1/2 T01330128

Conditions at: KALB observed 30 September 2014  06:51 UTC
Temperature: 13.3°C (56°F)
Dewpoint: 12.8°C (55°F) [RH = 97%]
Pressure (altimeter): 29.94 inches Hg (1014.0 mb)
[Sea-level pressure: 1013.7 mb]
Winds: calm
Visibility: 0.50 miles (0.80 km)
Ceiling: indefinite ceiling with vertical visibility of 100 feet AGL
Clouds: obscured sky
Present Weather: FG  (fog)
KALB 300651Z 00000KT 1/2SM R01/1600V2000FT FG VV001 13/13 A2994 RMK AO2 SLP137 T01330128

Conditions at: KALB observed 30 September 2014  06:44 UTC
Temperature: 13.3°C (56°F)
Dewpoint: 12.8°C (55°F) [RH = 97%]
Pressure (altimeter): 29.94 inches Hg (1014.0 mb)
Winds: calm
Visibility: 0.25 miles (0.40 km)
Ceiling: indefinite ceiling with vertical visibility of 100 feet AGL
Clouds: obscured sky
Present Weather: FG  (fog)
KALB 300644Z 00000KT 1/4SM R01/1600V2400FT FG VV001 13/13 A2994 RMK AO2 T01330128

Conditions at: KALB observed 30 September 2014  06:26 UTC
Temperature: 13.3°C (56°F)
Dewpoint: 12.8°C (55°F) [RH = 97%]
Pressure (altimeter): 29.94 inches Hg (1014.0 mb)
Winds: calm
Visibility: 0.13 miles (0.21 km)
Ceiling: indefinite ceiling with vertical visibility of 100 feet AGL
Clouds: obscured sky
Present Weather: FG  (fog)
KALB 300626Z 00000KT 1/8SM R01/2000V2600FT FG VV001 13/13 A2994 RMK AO2 T01330128

Conditions at: KALB observed 30 September 2014  06:20 UTC
Temperature: 13.3°C (56°F)
Dewpoint: 12.8°C (55°F) [RH = 97%]
Pressure (altimeter): 29.94 inches Hg (1014.0 mb)
Winds: calm
Visibility: 0.50 miles (0.80 km)
Ceiling: indefinite ceiling with vertical visibility of 100 feet AGL
Clouds: obscured sky
Present Weather: FG  (fog)
KALB 300620Z 00000KT 1/2SM R01/1600V2000FT FG VV001 13/13 A2994 RMK AO2 T01330128